Time;durP1;ratioP1;P1;durP2;ratioP2;P2;SDS_P1;SDS_P2;PMS_P1;PMS_P2;Temp;Humidity;BMP_temperature;BMP_pressure;BME280_temperature;BME280_humidity;BME280_pressure;Samples;Min_cycle;Max_cycle;Signal;HPM_P1;HPM_P2
2022/02/28 00:02:06;;;;;;;15.57;7.40;;;1.30;99.90;;;;;;5086513;28;20109;-63
2022/02/28 00:04:32;;;;;;;17.88;8.88;;;1.20;99.90;;;;;;5085651;28;20139;-63
2022/02/28 00:06:58;;;;;;;19.85;8.38;;;1.20;99.90;;;;;;5105590;28;20041;-63
2022/02/28 00:09:24;;;;;;;13.65;7.35;;;1.20;99.90;;;;;;5087676;28;20051;-63
2022/02/28 00:11:50;;;;;;;17.63;7.55;;;1.20;99.90;;;;;;5092676;28;20040;-63
2022/02/28 00:14:15;;;;;;;19.25;9.60;;;1.20;99.90;;;;;;5078492;28;20063;-63
2022/02/28 00:16:41;;;;;;;16.10;8.90;;;1.30;99.90;;;;;;5075495;28;20051;-62
2022/02/28 00:19:07;;;;;;;11.38;7.40;;;1.30;99.90;;;;;;5071315;28;20044;-63
2022/02/28 00:21:33;;;;;;;18.02;8.75;;;1.20;99.90;;;;;;5066055;28;20099;-64
2022/02/28 00:23:59;;;;;;;22.58;9.15;;;1.30;99.90;;;;;;5067162;28;20048;-63
2022/02/28 00:26:25;;;;;;;15.20;8.00;;;1.30;99.90;;;;;;5084831;28;20067;-63
2022/02/28 00:28:51;;;;;;;19.70;8.35;;;1.20;99.90;;;;;;5086391;28;20040;-62
2022/02/28 00:31:18;;;;;;;16.95;8.20;;;1.20;99.90;;;;;;5086190;28;20045;-62
2022/02/28 00:33:43;;;;;;;16.67;8.00;;;1.20;99.90;;;;;;5085710;28;20050;-63
2022/02/28 00:36:09;;;;;;;13.23;8.18;;;1.20;99.90;;;;;;5065750;28;20103;-62
2022/02/28 00:38:35;;;;;;;16.77;8.35;;;1.20;99.90;;;;;;5076105;28;20041;-63
2022/02/28 00:41:00;;;;;;;12.98;8.38;;;1.20;99.90;;;;;;5085940;28;20048;-63
2022/02/28 00:43:26;;;;;;;17.45;8.30;;;1.10;99.90;;;;;;5074685;28;20044;-63
2022/02/28 00:45:52;;;;;;;13.40;7.97;;;1.10;99.90;;;;;;5065947;28;20045;-62
2022/02/28 00:48:18;;;;;;;17.48;7.75;;;1.10;99.90;;;;;;5065622;28;20041;-63
2022/02/28 00:50:44;;;;;;;16.98;8.90;;;1.10;99.90;;;;;;5066053;28;20036;-63
2022/02/28 00:53:10;;;;;;;17.27;8.25;;;1.00;99.90;;;;;;5085398;28;20532;-63
2022/02/28 00:55:36;;;;;;;24.55;9.98;;;1.00;99.90;;;;;;5085751;28;20048;-63
2022/02/28 00:58:02;;;;;;;20.88;9.20;;;1.00;99.90;;;;;;5085704;28;20382;-63
2022/02/28 01:00:28;;;;;;;17.08;8.30;;;1.00;99.90;;;;;;5085811;28;20044;-63
2022/02/28 01:02:54;;;;;;;15.98;7.88;;;1.00;99.90;;;;;;5065324;28;20053;-63
2022/02/28 01:05:20;;;;;;;17.05;8.70;;;0.90;99.90;;;;;;5066056;28;20040;-63
2022/02/28 01:07:47;;;;;;;18.38;8.45;;;0.90;99.90;;;;;;5064979;28;20067;-62
2022/02/28 01:10:14;;;;;;;19.80;9.23;;;0.80;99.90;;;;;;5065824;28;20455;-62
2022/02/28 01:12:40;;;;;;;18.80;8.60;;;0.80;99.90;;;;;;5080956;28;20045;-63
2022/02/28 01:15:08;;;;;;;13.38;8.32;;;0.80;99.90;;;;;;5085463;28;20128;-63
2022/02/28 01:17:33;;;;;;;;;;;0.80;99.90;;;;;;5104215;28;20060;-62
2022/02/28 01:19:59;;;;;;;25.08;8.68;;;0.80;99.90;;;;;;5065411;28;19921;-62
2022/02/28 01:22:25;;;;;;;18.35;9.40;;;0.80;99.90;;;;;;5064437;28;20116;-62
2022/02/28 01:24:51;;;;;;;19.20;8.38;;;0.80;99.90;;;;;;5079706;28;20064;-62
2022/02/28 01:27:19;;;;;;;13.82;8.52;;;0.80;99.90;;;;;;5074686;28;20067;-62
2022/02/28 01:29:45;;;;;;;19.20;9.00;;;0.80;99.90;;;;;;5085373;28;20037;-62
2022/02/28 01:32:11;;;;;;;18.20;8.95;;;0.80;99.90;;;;;;5085054;28;20044;-63
2022/02/28 01:34:38;;;;;;;13.95;8.60;;;0.90;99.90;;;;;;5083428;28;20041;-63
2022/02/28 01:37:04;;;;;;;17.17;8.25;;;0.90;99.90;;;;;;5078891;28;20048;-62
2022/02/28 01:39:30;;;;;;;15.75;9.25;;;0.90;99.90;;;;;;5084956;28;20040;-62
2022/02/28 01:41:55;;;;;;;25.52;9.38;;;0.80;99.90;;;;;;5084787;28;20047;-63
2022/02/28 01:44:21;;;;;;;17.92;8.98;;;0.70;99.90;;;;;;5084582;28;20044;-63
2022/02/28 01:46:47;;;;;;;19.65;9.50;;;0.60;99.90;;;;;;5065679;28;20109;-63
2022/02/28 01:49:13;;;;;;;17.98;8.68;;;0.60;99.90;;;;;;5064879;28;20083;-63
2022/02/28 01:51:39;;;;;;;14.07;8.90;;;0.70;99.90;;;;;;5063912;28;20041;-63
2022/02/28 01:54:06;;;;;;;12.38;8.18;;;0.60;99.90;;;;;;5064629;28;20083;-63
2022/02/28 01:56:32;;;;;;;15.38;8.50;;;0.70;99.90;;;;;;5080376;28;20051;-62
2022/02/28 01:58:58;;;;;;;18.65;9.35;;;0.60;99.90;;;;;;5085010;28;20109;-62
2022/02/28 02:01:24;;;;;;;17.38;9.10;;;0.60;99.90;;;;;;5084216;28;20044;-62
2022/02/28 02:03:49;;;;;;;17.25;9.63;;;0.60;99.90;;;;;;5084235;28;20163;-63
2022/02/28 02:06:18;;;;;;;20.13;9.18;;;0.60;99.90;;;;;;5069655;28;20040;-62
2022/02/28 02:08:44;;;;;;;17.27;10.02;;;0.50;99.90;;;;;;5064463;28;20041;-63
2022/02/28 02:11:10;;;;;;;16.90;10.10;;;0.50;99.90;;;;;;5069358;28;20060;-63
2022/02/28 02:13:35;;;;;;;22.08;9.98;;;0.50;99.90;;;;;;5064619;28;20033;-63
2022/02/28 02:16:02;;;;;;;19.92;10.10;;;0.40;99.90;;;;;;5077513;28;20037;-63
2022/02/28 02:18:28;;;;;;;20.83;10.98;;;0.50;99.90;;;;;;5084060;28;20045;-63
2022/02/28 02:20:53;;;;;;;19.67;11.65;;;0.50;99.90;;;;;;5082101;28;20093;-63
2022/02/28 02:23:20;;;;;;;29.50;12.80;;;0.40;99.90;;;;;;5084388;28;20096;-63
2022/02/28 02:25:46;;;;;;;17.00;10.70;;;0.50;99.90;;;;;;5072576;28;20057;-62
2022/02/28 02:28:14;;;;;;;26.02;11.32;;;0.40;99.90;;;;;;5064536;28;20123;-63
2022/02/28 02:30:41;;;;;;;;;;;0.40;99.90;;;;;;5064570;28;20045;-63
2022/02/28 02:33:06;;;;;;;18.65;11.30;;;0.40;99.90;;;;;;5063846;28;19932;-62
2022/02/28 02:35:32;;;;;;;18.77;11.85;;;0.40;99.90;;;;;;5074383;28;20048;-62
2022/02/28 02:37:58;;;;;;;17.15;11.77;;;0.40;99.90;;;;;;5083659;28;20067;-62
2022/02/28 02:40:24;;;;;;;21.48;11.85;;;0.40;99.90;;;;;;5084422;28;20041;-63
2022/02/28 02:42:50;;;;;;;18.98;11.48;;;0.50;99.90;;;;;;5083886;28;20060;-63
2022/02/28 02:45:16;;;;;;;17.65;10.65;;;0.40;99.90;;;;;;5075186;28;20045;-63
2022/02/28 02:47:42;;;;;;;16.30;10.70;;;0.30;99.90;;;;;;5064602;28;20091;-62
2022/02/28 02:50:08;;;;;;;22.63;11.52;;;0.40;99.90;;;;;;5063908;28;20068;-62
2022/02/28 02:52:34;;;;;;;21.92;11.82;;;0.40;99.90;;;;;;5063435;28;20045;-63
2022/02/28 02:55:00;;;;;;;26.10;12.30;;;0.40;99.90;;;;;;5072653;28;20068;-62
2022/02/28 02:57:26;;;;;;;19.63;11.18;;;0.30;99.90;;;;;;5083785;28;20047;-62
2022/02/28 02:59:52;;;;;;;18.70;11.45;;;0.30;99.90;;;;;;5083760;28;20040;-62
2022/02/28 03:02:18;;;;;;;22.80;10.88;;;0.20;99.90;;;;;;5068277;28;20091;-62
2022/02/28 03:04:44;;;;;;;24.67;10.90;;;0.20;99.90;;;;;;5062480;28;20053;-62
2022/02/28 03:07:17;;;;;;;17.73;11.13;;;0.20;99.90;;;;;;5063883;28;20045;-62
2022/02/28 03:09:44;;;;;;;19.58;11.65;;;0.20;99.90;;;;;;5084107;28;20045;-62
2022/02/28 03:12:10;;;;;;;22.60;11.57;;;0.10;99.90;;;;;;5070992;28;20124;-62
2022/02/28 03:14:36;;;;;;;20.67;11.00;;;0.10;99.90;;;;;;5063714;28;20041;-63
2022/02/28 03:17:02;;;;;;;20.80;10.82;;;0.10;99.90;;;;;;5063299;28;20037;-62
2022/02/28 03:19:28;;;;;;;15.07;9.80;;;0.00;99.90;;;;;;5063747;28;20072;-62
2022/02/28 03:21:53;;;;;;;20.23;9.73;;;0.00;99.90;;;;;;5072684;28;20045;-62
2022/02/28 03:24:19;;;;;;;19.73;10.38;;;0.00;99.90;;;;;;5084073;28;20036;-62
2022/02/28 03:26:45;;;;;;;14.57;10.32;;;0.00;99.90;;;;;;5083541;28;20076;-62
2022/02/28 03:29:12;;;;;;;22.40;11.45;;;0.00;99.90;;;;;;5083616;28;20052;-62
2022/02/28 03:31:37;;;;;;;22.43;11.43;;;-0.10;99.90;;;;;;5075851;28;20590;-62
2022/02/28 03:34:03;;;;;;;21.08;10.38;;;0.00;99.90;;;;;;5063152;28;20044;-62
2022/02/28 03:36:29;;;;;;;16.15;9.90;;;-0.10;99.90;;;;;;5063218;28;20049;-63
2022/02/28 03:38:55;;;;;;;19.25;10.50;;;-0.10;99.90;;;;;;5063515;28;20041;-62
2022/02/28 03:41:21;;;;;;;20.48;10.15;;;0.00;99.90;;;;;;5064338;28;20377;-62
2022/02/28 03:43:46;;;;;;;17.83;10.98;;;0.00;99.90;;;;;;5078991;28;20128;-63
2022/02/28 03:46:12;;;;;;;18.35;10.48;;;-0.10;99.90;;;;;;5063331;28;20060;-62
2022/02/28 03:48:38;;;;;;;17.70;9.85;;;0.00;99.90;;;;;;5064256;28;20116;-62
2022/02/28 03:51:04;;;;;;;22.27;9.90;;;0.00;99.90;;;;;;5083999;28;20061;-62
2022/02/28 03:53:31;;;;;;;18.60;9.95;;;-0.10;99.90;;;;;;5087108;28;20048;-63
2022/02/28 03:55:58;;;;;;;16.10;10.20;;;0.00;99.90;;;;;;5075742;28;20041;-63
2022/02/28 03:58:24;;;;;;;20.58;10.75;;;0.00;99.90;;;;;;5080497;28;20083;-62
2022/02/28 04:00:50;;;;;;;19.23;10.20;;;0.00;99.90;;;;;;5086790;28;20051;-63
2022/02/28 04:03:17;;;;;;;17.50;9.90;;;-0.10;99.90;;;;;;5086274;28;20052;-62
2022/02/28 04:05:42;;;;;;;19.67;9.70;;;-0.10;99.90;;;;;;5078915;28;20385;-62
2022/02/28 04:08:08;;;;;;;18.45;10.57;;;-0.20;99.90;;;;;;5066078;28;20059;-62
2022/02/28 04:10:34;;;;;;;17.50;10.60;;;-0.20;99.90;;;;;;5066615;28;20051;-62
2022/02/28 04:13:00;;;;;;;18.45;10.75;;;-0.30;99.90;;;;;;5066589;28;20143;-62
2022/02/28 04:15:26;;;;;;;16.15;10.52;;;-0.20;99.90;;;;;;5066686;28;20044;-62
2022/02/28 04:17:52;;;;;;;18.00;9.52;;;-0.30;99.90;;;;;;5072929;28;20071;-62
2022/02/28 04:20:18;;;;;;;18.50;9.98;;;-0.30;99.90;;;;;;5086511;28;20064;-62
2022/02/28 04:22:44;;;;;;;23.42;10.35;;;-0.20;99.90;;;;;;5085911;28;20041;-63
2022/02/28 04:25:10;;;;;;;22.92;10.88;;;-0.20;99.90;;;;;;5086479;28;20036;-63
2022/02/28 04:27:36;;;;;;;18.80;10.38;;;-0.30;99.90;;;;;;5086274;28;20055;-63
2022/02/28 04:30:03;;;;;;;16.85;10.70;;;-0.30;99.90;;;;;;5086373;28;20044;-63
2022/02/28 04:32:29;;;;;;;16.30;9.82;;;-0.30;99.90;;;;;;5074724;28;20048;-63
2022/02/28 04:34:55;;;;;;;18.75;10.57;;;-0.40;99.90;;;;;;5066182;28;20689;-62
2022/02/28 04:37:20;;;;;;;17.23;9.90;;;-0.40;99.90;;;;;;5065509;28;20051;-62
2022/02/28 04:39:47;;;;;;;19.27;11.07;;;-0.40;99.90;;;;;;5066218;28;20134;-63
2022/02/28 04:42:12;;;;;;;23.85;11.25;;;-0.40;99.90;;;;;;5066127;28;20044;-62
2022/02/28 04:44:38;;;;;;;20.90;11.52;;;-0.50;99.90;;;;;;5067882;28;20155;-62
2022/02/28 04:47:04;;;;;;;20.20;10.45;;;-0.40;99.90;;;;;;5085541;28;20051;-62
2022/02/28 04:49:29;;;;;;;19.83;11.27;;;-0.40;99.90;;;;;;5085870;28;20040;-63
2022/02/28 04:51:55;;;;;;;18.77;11.30;;;-0.40;99.90;;;;;;5085203;28;20048;-63
2022/02/28 04:54:21;;;;;;;23.17;12.18;;;-0.50;99.90;;;;;;5085921;28;20048;-63
2022/02/28 04:56:47;;;;;;;23.83;12.10;;;-0.40;99.90;;;;;;5077792;28;20041;-62
2022/02/28 04:59:12;;;;;;;21.63;12.57;;;-0.40;99.90;;;;;;5065922;28;20091;-63
2022/02/28 05:01:38;;;;;;;22.33;12.52;;;-0.50;99.90;;;;;;5065373;28;20072;-63
2022/02/28 05:04:04;;;;;;;19.30;12.23;;;-0.50;99.90;;;;;;5074100;28;20571;-63
2022/02/28 05:06:29;;;;;;;19.60;11.93;;;-0.60;99.90;;;;;;5084907;28;20056;-62
2022/02/28 05:08:55;;;;;;;21.38;11.52;;;-0.70;99.90;;;;;;5085375;28;20048;-62
2022/02/28 05:11:21;;;;;;;20.73;11.20;;;-0.60;99.90;;;;;;5074267;28;20037;-63
2022/02/28 05:13:47;;;;;;;18.83;11.73;;;-0.60;99.90;;;;;;5065729;28;20086;-62
2022/02/28 05:16:12;;;;;;;20.98;12.20;;;-0.60;99.90;;;;;;5065170;28;20051;-62
2022/02/28 05:18:38;;;;;;;21.08;11.70;;;-0.60;99.90;;;;;;5064941;28;20072;-63
2022/02/28 05:21:03;;;;;;;25.65;12.80;;;-0.60;99.90;;;;;;5064565;28;20057;-62
2022/02/28 05:23:29;;;;;;;24.65;13.63;;;-0.60;99.90;;;;;;5065327;28;20033;-63
2022/02/28 05:25:55;;;;;;;24.25;13.07;;;-0.60;99.90;;;;;;5066381;28;20080;-63
2022/02/28 05:28:21;;;;;;;26.25;12.88;;;-0.60;99.90;;;;;;5065095;28;20062;-63
2022/02/28 05:30:47;;;;;;;22.35;13.23;;;-0.60;99.90;;;;;;5072032;28;20074;-62
2022/02/28 05:33:16;;;;;;;24.17;12.43;;;-0.60;99.90;;;;;;5084736;28;20412;-62
2022/02/28 05:35:42;;;;;;;25.77;12.20;;;-0.60;99.90;;;;;;5083698;28;20086;-62
2022/02/28 05:38:08;;;;;;;28.70;12.88;;;-0.60;99.90;;;;;;5084167;28;20048;-62
2022/02/28 05:40:35;;;;;;;21.67;12.88;;;-0.60;99.90;;;;;;5071560;28;20416;-62
2022/02/28 05:43:00;;;;;;;19.52;12.27;;;-0.50;99.90;;;;;;5080287;28;20076;-62
2022/02/28 05:45:26;;;;;;;19.80;11.70;;;-0.50;99.90;;;;;;5079405;28;20044;-63
2022/02/28 05:47:52;;;;;;;21.50;12.07;;;-0.50;99.90;;;;;;5084181;28;20097;-62
2022/02/28 05:50:17;;;;;;;20.95;12.77;;;-0.50;99.90;;;;;;5079144;28;20044;-62
2022/02/28 05:52:45;;;;;;;19.73;11.50;;;-0.60;99.90;;;;;;5064110;28;20044;-63
2022/02/28 05:55:11;;;;;;;;;;;-0.60;99.90;;;;;;5065500;28;20049;-62
2022/02/28 05:57:38;;;;;;;20.50;10.95;;;-0.60;99.90;;;;;;5064381;28;19928;-62
2022/02/28 06:00:07;;;;;;;19.08;12.27;;;-0.60;99.90;;;;;;5064573;28;20102;-62
2022/02/28 06:02:33;;;;;;;17.48;10.82;;;-0.60;99.90;;;;;;5063944;28;20112;-62
2022/02/28 06:04:59;;;;;;;18.92;11.82;;;-0.60;99.90;;;;;;5074489;28;20125;-62
2022/02/28 06:07:24;;;;;;;20.92;10.88;;;-0.60;99.90;;;;;;5084093;28;20504;-62
2022/02/28 06:09:50;;;;;;;21.67;11.38;;;-0.60;99.90;;;;;;5084456;28;20044;-62
2022/02/28 06:12:16;;;;;;;25.25;11.35;;;-0.60;99.90;;;;;;5099123;28;20106;-62
2022/02/28 06:14:42;;;;;;;22.67;11.35;;;-0.50;99.90;;;;;;5082729;28;20473;-62
2022/02/28 06:17:08;;;;;;;21.73;11.45;;;-0.60;99.90;;;;;;5083393;28;20051;-62
2022/02/28 06:19:34;;;;;;;25.17;12.48;;;-0.50;99.90;;;;;;5074905;28;20044;-62
2022/02/28 06:21:59;;;;;;;21.10;11.20;;;-0.50;99.90;;;;;;5063422;28;20110;-62
2022/02/28 06:24:25;;;;;;;22.85;13.02;;;-0.50;99.90;;;;;;5063810;28;20057;-62
2022/02/28 06:26:52;;;;;;;20.17;11.75;;;-0.60;99.90;;;;;;5063887;28;20037;-62
2022/02/28 06:29:17;;;;;;;22.52;11.65;;;-0.70;99.90;;;;;;5077713;28;20096;-62
2022/02/28 06:31:44;;;;;;;21.50;11.40;;;-0.80;99.90;;;;;;5083698;28;20075;-62
2022/02/28 06:34:13;;;;;;;19.20;12.32;;;-0.70;99.90;;;;;;5069284;28;20049;-62
2022/02/28 06:36:40;;;;;;;23.55;11.35;;;-0.60;99.90;;;;;;5075245;28;20128;-62
2022/02/28 06:39:07;;;;;;;21.63;11.55;;;-0.50;99.90;;;;;;5083966;28;20045;-63
2022/02/28 06:41:32;;;;;;;16.60;10.77;;;-0.60;99.90;;;;;;5083060;28;20055;-62
2022/02/28 06:43:58;;;;;;;18.45;10.80;;;-0.60;99.90;;;;;;5078329;28;20040;-62
2022/02/28 06:46:24;;;;;;;22.27;11.13;;;-0.50;99.90;;;;;;5085842;28;20055;-62
2022/02/28 06:48:50;;;;;;;22.50;11.00;;;-0.50;99.90;;;;;;5071075;28;20032;-63
2022/02/28 06:51:16;;;;;;;21.10;11.48;;;-0.50;99.90;;;;;;5080176;28;20041;-63
2022/02/28 06:53:42;;;;;;;22.83;11.35;;;-0.50;99.90;;;;;;5084069;28;20060;-63
2022/02/28 06:56:08;;;;;;;18.60;10.77;;;-0.50;99.90;;;;;;5082778;28;20055;-63
2022/02/28 06:58:34;;;;;;;19.45;11.35;;;-0.50;99.90;;;;;;5082270;28;20036;-63
2022/02/28 07:01:00;;;;;;;22.92;11.85;;;-0.50;99.90;;;;;;5072957;28;20063;-63
2022/02/28 07:03:26;;;;;;;20.23;11.50;;;-0.40;99.90;;;;;;5067862;28;20140;-63
2022/02/28 07:05:54;;;;;;;16.45;11.35;;;-0.40;99.90;;;;;;5064146;28;20049;-63
2022/02/28 07:08:21;;;;;;;20.65;11.77;;;-0.30;99.90;;;;;;5083454;28;20492;-64
2022/02/28 07:10:49;;;;;;;25.13;12.50;;;-0.30;99.90;;;;;;5076480;28;20401;-63
2022/02/28 07:13:15;;;;;;;19.10;11.75;;;-0.30;99.90;;;;;;5071541;28;20067;-62
2022/02/28 07:15:42;;;;;;;22.60;12.85;;;-0.30;99.90;;;;;;5082955;28;21904;-62
2022/02/28 07:18:08;;;;;;;20.65;10.73;;;-0.20;99.90;;;;;;5082354;28;20052;-62
2022/02/28 07:20:34;;;;;;;19.27;11.65;;;-0.30;99.90;;;;;;5099437;28;20047;-62
2022/02/28 07:23:00;;;;;;;19.52;12.35;;;-0.20;99.90;;;;;;5094279;28;20465;-62
2022/02/28 07:25:26;;;;;;;23.13;12.07;;;-0.20;99.90;;;;;;5086864;28;20049;-62
2022/02/28 07:27:52;;;;;;;25.60;11.05;;;-0.10;99.90;;;;;;5084917;28;20096;-62
2022/02/28 07:30:17;;;;;;;25.83;11.63;;;-0.10;99.90;;;;;;5066535;28;20051;-62
2022/02/28 07:32:43;;;;;;;18.77;10.85;;;0.00;99.90;;;;;;5066382;28;20037;-62
2022/02/28 07:35:10;;;;;;;20.48;10.27;;;0.10;99.90;;;;;;5067181;28;20569;-62
2022/02/28 07:37:36;;;;;;;21.88;12.20;;;0.20;99.90;;;;;;5072588;28;20049;-62
2022/02/28 07:40:06;;;;;;;19.63;11.02;;;0.30;99.90;;;;;;5086680;28;20044;-62
2022/02/28 07:42:31;;;;;;;22.73;11.18;;;0.40;99.90;;;;;;5084623;28;20051;-62
2022/02/28 07:44:57;;;;;;;18.73;11.35;;;0.40;99.90;;;;;;5066454;28;20040;-62
2022/02/28 07:47:23;;;;;;;19.10;11.02;;;0.50;99.90;;;;;;5066118;28;20049;-63
2022/02/28 07:49:49;;;;;;;23.45;10.70;;;0.60;99.90;;;;;;5066599;28;20048;-62
2022/02/28 07:52:14;;;;;;;18.60;10.48;;;0.70;99.90;;;;;;5065580;28;20088;-62
2022/02/28 07:54:40;;;;;;;23.27;11.00;;;0.70;99.90;;;;;;5075608;28;20037;-63
2022/02/28 07:57:06;;;;;;;18.02;10.35;;;1.00;99.90;;;;;;5098650;28;20055;-62
2022/02/28 07:59:31;;;;;;;15.48;10.77;;;1.10;99.90;;;;;;5106601;28;20067;-63
2022/02/28 08:01:57;;;;;;;18.92;10.30;;;1.10;99.90;;;;;;5091298;28;20104;-62
2022/02/28 08:04:23;;;;;;;15.60;9.95;;;1.20;99.90;;;;;;5086859;28;20424;-63
2022/02/28 08:06:48;;;;;;;15.90;9.52;;;1.30;99.90;;;;;;5086065;28;20071;-62
2022/02/28 08:09:16;;;;;;;18.08;9.43;;;1.40;99.90;;;;;;5086614;28;20041;-63
2022/02/28 08:11:42;;;;;;;14.70;8.70;;;1.60;99.90;;;;;;5068867;28;20053;-63
2022/02/28 08:14:08;;;;;;;14.10;8.50;;;1.80;99.90;;;;;;5087273;28;20040;-62
2022/02/28 08:16:34;;;;;;;19.20;9.35;;;1.90;99.90;;;;;;5086473;28;20600;-63
2022/02/28 08:18:59;;;;;;;16.45;9.48;;;2.10;99.90;;;;;;5068798;28;20071;-63
2022/02/28 08:21:25;;;;;;;14.63;9.57;;;2.30;99.90;;;;;;5065655;28;20048;-64
2022/02/28 08:23:51;;;;;;;12.73;8.85;;;2.50;99.90;;;;;;5066186;28;20048;-63
2022/02/28 08:26:16;;;;;;;14.25;8.07;;;2.70;99.90;;;;;;5067626;28;20041;-63
2022/02/28 08:28:42;;;;;;;18.45;9.25;;;2.90;99.90;;;;;;5086470;28;20059;-62
2022/02/28 08:31:08;;;;;;;12.95;7.50;;;3.00;99.90;;;;;;5082140;28;20043;-62
2022/02/28 08:33:33;;;;;;;14.57;7.70;;;3.20;99.90;;;;;;5085143;28;20090;-62
2022/02/28 08:35:59;;;;;;;14.68;8.27;;;3.30;99.90;;;;;;5066829;28;20048;-63
2022/02/28 08:38:25;;;;;;;12.02;7.15;;;3.50;99.90;;;;;;5067344;28;20056;-63
2022/02/28 08:40:51;;;;;;;15.60;8.43;;;3.60;99.90;;;;;;5076157;28;20047;-62
2022/02/28 08:43:16;;;;;;;16.30;8.13;;;3.80;99.90;;;;;;5081663;28;20040;-63
2022/02/28 08:45:42;;;;;;;12.75;7.65;;;3.90;99.90;;;;;;5073296;28;20063;-63
2022/02/28 08:48:08;;;;;;;12.70;7.72;;;4.00;99.90;;;;;;5076836;28;20101;-63
2022/02/28 08:50:35;;;;;;;16.70;8.77;;;4.10;99.90;;;;;;5074508;28;20041;-63
2022/02/28 08:53:01;;;;;;;11.07;7.25;;;4.20;99.90;;;;;;5082312;28;20806;-63
2022/02/28 08:55:27;;;;;;;15.35;7.38;;;4.30;99.90;;;;;;5087337;28;20122;-63
2022/02/28 08:57:52;;;;;;;10.25;7.00;;;4.40;99.90;;;;;;5087341;28;20059;-63
2022/02/28 09:00:18;;;;;;;14.82;8.68;;;4.40;99.90;;;;;;5089481;28;20048;-63
2022/02/28 09:02:44;;;;;;;11.88;7.25;;;4.50;99.90;;;;;;5082365;28;20053;-63
2022/02/28 09:05:10;;;;;;;12.13;7.70;;;4.60;99.90;;;;;;5081999;28;20489;-63
2022/02/28 09:07:36;;;;;;;10.60;6.88;;;4.80;99.90;;;;;;5085546;28;20045;-64
2022/02/28 09:10:04;;;;;;;10.95;7.35;;;4.90;99.90;;;;;;5087889;28;20040;-63
2022/02/28 09:12:29;;;;;;;12.30;6.97;;;4.90;99.90;;;;;;5083637;28;20031;-64
2022/02/28 09:14:55;;;;;;;9.95;7.25;;;5.00;99.90;;;;;;5084361;28;20394;-63
2022/02/28 09:17:21;;;;;;;12.75;7.13;;;5.10;99.90;;;;;;5088816;28;20044;-63
2022/02/28 09:19:47;;;;;;;14.77;7.45;;;5.20;99.90;;;;;;5080637;28;20048;-63
2022/02/28 09:22:13;;;;;;;11.63;7.72;;;5.30;99.90;;;;;;5076307;28;20464;-63
2022/02/28 09:24:38;;;;;;;15.82;7.70;;;5.40;99.90;;;;;;5076940;28;20052;-63
2022/02/28 09:27:07;;;;;;;10.48;7.28;;;5.40;99.90;;;;;;5081825;28;20081;-63
2022/02/28 09:29:33;;;;;;;13.60;7.53;;;5.50;99.90;;;;;;5082617;28;20036;-66
2022/02/28 09:31:59;;;;;;;12.77;7.68;;;5.60;99.90;;;;;;5071020;28;20060;-69
2022/02/28 09:34:26;;;;;;;11.27;6.68;;;5.70;99.90;;;;;;5085956;28;20567;-69
2022/02/28 09:36:51;;;;;;;11.40;6.47;;;5.80;99.90;;;;;;5080947;28;20083;-72
2022/02/28 09:39:20;;;;;;;12.13;7.18;;;5.90;99.90;;;;;;5082958;28;20040;-73
2022/02/28 09:41:47;;;;;;;12.93;6.97;;;6.00;99.90;;;;;;5071997;28;20485;-68
2022/02/28 09:44:17;;;;;;;12.88;6.53;;;6.10;99.90;;;;;;5082093;28;20044;-68
2022/02/28 09:46:44;;;;;;;10.32;6.45;;;6.00;99.90;;;;;;5076223;28;20036;-67
2022/02/28 09:49:10;;;;;;;11.68;6.72;;;6.10;99.90;;;;;;5070979;28;20037;-68
2022/02/28 09:51:37;;;;;;;10.77;6.57;;;6.20;99.90;;;;;;5075388;28;20056;-68
2022/02/28 09:54:03;;;;;;;9.60;6.43;;;6.20;98.00;;;;;;5080982;28;20131;-67
2022/02/28 09:56:29;;;;;;;9.85;6.20;;;6.20;98.60;;;;;;5078072;28;20045;-67
2022/02/28 09:58:55;;;;;;;9.77;6.28;;;6.20;98.30;;;;;;5074406;28;20127;-67
2022/02/28 10:01:21;;;;;;;13.40;6.95;;;6.30;98.50;;;;;;5072778;28;20048;-67
2022/02/28 10:03:47;;;;;;;10.70;7.45;;;6.40;97.90;;;;;;5075234;28;20051;-68
2022/02/28 10:06:14;;;;;;;11.35;6.70;;;6.30;97.40;;;;;;5074471;28;20123;-67
2022/02/28 10:08:43;;;;;;;10.68;6.80;;;6.40;98.10;;;;;;5078935;28;20044;-67
2022/02/28 10:11:39;;;;;;;10.07;6.13;;;6.50;96.70;;;;;;5078365;28;20097;-69
2022/02/28 10:14:09;;;;;;;9.93;6.60;;;6.60;98.80;;;;;;5078906;28;20090;-66
2022/02/28 10:17:02;;;;;;;14.65;6.70;;;6.70;97.40;;;;;;5071008;28;20048;-66
2022/02/28 10:19:30;;;;;;;10.60;6.38;;;6.70;97.00;;;;;;5071179;28;20214;-66
2022/02/28 10:22:01;;;;;;;12.70;6.80;;;6.80;96.60;;;;;;5076095;28;20063;-65
2022/02/28 10:24:33;;;;;;;11.60;6.53;;;6.90;96.10;;;;;;5085203;28;20044;-66
2022/02/28 10:27:00;;;;;;;10.85;6.70;;;7.00;96.90;;;;;;5076226;28;20058;-66
2022/02/28 10:29:31;;;;;;;11.10;6.33;;;7.00;95.60;;;;;;5074954;28;20064;-65
2022/02/28 10:31:59;;;;;;;12.13;7.15;;;7.10;96.70;;;;;;5076766;28;20290;-65
2022/02/28 10:34:26;;;;;;;10.05;6.90;;;7.10;95.80;;;;;;5081281;28;20040;-69
2022/02/28 10:36:58;;;;;;;11.43;7.00;;;7.20;95.10;;;;;;5073256;28;20138;-68
2022/02/28 10:39:44;;;;;;;9.55;6.45;;;7.10;94.60;;;;;;5080386;28;20041;-68
2022/02/28 10:42:14;;;;;;;10.55;6.30;;;7.20;94.80;;;;;;5088748;28;20045;-68
2022/02/28 10:44:41;;;;;;;10.27;7.00;;;7.30;94.00;;;;;;5078815;28;20053;-68
2022/02/28 10:47:09;;;;;;;10.13;6.28;;;7.30;95.10;;;;;;5081786;28;20048;-65
2022/02/28 10:49:36;;;;;;;8.70;5.75;;;7.30;94.20;;;;;;5076392;28;20045;-65
2022/02/28 10:52:08;;;;;;;11.13;5.93;;;7.30;94.00;;;;;;5069778;28;20064;-68
2022/02/28 10:54:44;;;;;;;10.27;7.15;;;7.30;94.10;;;;;;5075128;28;20094;-70
2022/02/28 10:57:18;;;;;;;8.95;6.10;;;7.50;92.80;;;;;;5071627;28;20041;-69
2022/02/28 10:59:49;;;;;;;9.65;6.05;;;7.50;91.80;;;;;;5079048;28;20040;-72
2022/02/28 11:02:36;;;;;;;10.93;6.82;;;7.50;91.70;;;;;;5078417;28;20055;-70
2022/02/28 11:05:07;;;;;;;9.27;6.63;;;7.60;92.20;;;;;;5075845;28;20068;-71
2022/02/28 11:07:49;;;;;;;12.48;6.68;;;7.70;91.90;;;;;;5074259;28;20064;-70
2022/02/28 11:10:17;;;;;;;9.52;6.82;;;7.70;92.10;;;;;;5080654;28;20036;-68
2022/02/28 11:12:43;;;;;;;;;;;7.80;91.30;;;;;;5085681;28;20036;-68
2022/02/28 11:15:15;;;;;;;9.43;6.55;;;7.90;90.50;;;;;;5079505;28;19924;-70
2022/02/28 11:17:46;;;;;;;9.32;6.32;;;7.90;90.80;;;;;;5081752;28;20049;-69
2022/02/28 11:20:17;;;;;;;10.50;6.22;;;8.00;91.00;;;;;;5083147;28;20050;-68
2022/02/28 11:22:44;;;;;;;11.13;6.55;;;7.90;90.20;;;;;;5072699;28;20456;-68
2022/02/28 11:25:12;;;;;;;13.65;6.63;;;8.00;90.70;;;;;;5074520;28;20041;-64
2022/02/28 11:27:40;;;;;;;8.43;6.53;;;8.10;90.10;;;;;;5081786;28;20048;-67
2022/02/28 11:30:09;;;;;;;11.75;6.60;;;8.10;88.70;;;;;;5091039;28;20496;-71
2022/02/28 11:32:35;;;;;;;9.13;5.95;;;8.30;90.60;;;;;;5081001;28;20056;-68
2022/02/28 11:35:38;;;;;;;10.48;6.65;;;8.40;91.20;;;;;;5077788;28;20033;-65
2022/02/28 11:38:15;;;;;;;11.07;6.80;;;8.50;89.00;;;;;;5081409;28;20051;-65
2022/02/28 11:40:44;;;;;;;8.50;6.10;;;8.50;86.10;;;;;;5072739;28;20069;-72
2022/02/28 11:43:25;;;;;;;12.55;6.20;;;8.80;85.20;;;;;;5078459;28;20045;-68
2022/02/28 11:46:06;;;;;;;8.95;5.80;;;8.80;83.70;;;;;;5076447;28;20041;-68
2022/02/28 11:48:36;;;;;;;12.98;6.32;;;9.00;87.30;;;;;;5081100;28;20055;-71
2022/02/28 11:51:09;;;;;;;9.88;6.43;;;9.00;85.30;;;;;;5065860;28;20041;-71
2022/02/28 11:53:43;;;;;;;10.90;5.65;;;9.30;83.40;;;;;;5078406;28;20048;-63
2022/02/28 11:56:34;;;;;;;9.15;5.35;;;9.80;85.90;;;;;;5085942;28;20037;-63
2022/02/28 11:59:04;;;;;;;7.95;6.22;;;10.70;81.80;;;;;;5075842;28;20052;-63
2022/02/28 12:01:41;;;;;;;11.27;5.82;;;11.40;80.30;;;;;;5078017;28;20037;-63
2022/02/28 12:04:06;;;;;;;8.30;5.70;;;12.00;78.60;;;;;;5077210;28;20435;-63
2022/02/28 12:06:55;;;;;;;10.13;6.65;;;12.40;74.10;;;;;;5082106;28;20041;-63
2022/02/28 12:09:35;;;;;;;9.18;6.03;;;12.70;71.00;;;;;;5076993;28;20178;-64
2022/02/28 12:12:10;;;;;;;6.38;5.35;;;13.10;67.30;;;;;;5086113;28;20044;-64
2022/02/28 12:14:59;;;;;;;7.40;5.63;;;13.10;65.70;;;;;;5065386;28;20060;-64
2022/02/28 12:17:40;;;;;;;7.85;5.28;;;13.10;59.60;;;;;;5068565;28;20149;-64
2022/02/28 12:20:14;;;;;;;6.82;4.97;;;12.90;57.50;;;;;;5066457;28;20049;-64
2022/02/28 12:22:55;;;;;;;6.78;5.45;;;12.90;55.30;;;;;;5063882;28;20075;-65
2022/02/28 12:25:51;;;;;;;9.68;5.82;;;12.80;55.10;;;;;;5067453;28;20045;-65
2022/02/28 12:28:36;;;;;;;6.97;5.30;;;13.00;57.50;;;;;;5072563;28;20044;-65
2022/02/28 12:31:13;;;;;;;7.35;4.90;;;13.00;53.20;;;;;;5071823;28;20048;-64
2022/02/28 12:33:39;;;;;;;8.93;5.82;;;13.30;58.00;;;;;;5070658;28;20060;-64
2022/02/28 12:36:12;;;;;;;7.28;5.53;;;13.00;59.00;;;;;;5067582;28;20049;-64
2022/02/28 12:38:49;;;;;;;10.38;5.38;;;13.30;57.70;;;;;;5076934;28;20130;-68
2022/02/28 12:41:32;;;;;;;6.68;5.22;;;13.40;57.10;;;;;;5086293;28;20464;-69
2022/02/28 12:44:00;;;;;;;8.10;5.85;;;13.40;51.50;;;;;;5072399;28;20047;-71